sensor_id;sensor_type;location;lat;lon;timestamp;temperature;humidity
17172;DHT22;8701;50.150;8.756;2023-04-22T00:01:57;13.10;99.90
17172;DHT22;8701;50.150;8.756;2023-04-22T00:06:00;13.10;99.90
17172;DHT22;8701;50.150;8.756;2023-04-22T00:10:03;13.10;99.90
17172;DHT22;8701;50.150;8.756;2023-04-22T00:14:06;13.10;99.90
17172;DHT22;8701;50.150;8.756;2023-04-22T00:18:08;13.00;99.90
17172;DHT22;8701;50.150;8.756;2023-04-22T00:22:15;13.00;99.90
17172;DHT22;8701;50.150;8.756;2023-04-22T00:26:17;13.00;99.90
17172;DHT22;8701;50.150;8.756;2023-04-22T00:30:19;13.00;99.90
17172;DHT22;8701;50.150;8.756;2023-04-22T00:34:21;13.00;99.90
17172;DHT22;8701;50.150;8.756;2023-04-22T00:38:25;13.00;99.90
17172;DHT22;8701;50.150;8.756;2023-04-22T00:42:27;13.00;99.90
17172;DHT22;8701;50.150;8.756;2023-04-22T00:46:30;13.00;99.90
17172;DHT22;8701;50.150;8.756;2023-04-22T00:50:33;12.90;99.90
17172;DHT22;8701;50.150;8.756;2023-04-22T00:54:37;12.90;99.90
17172;DHT22;8701;50.150;8.756;2023-04-22T00:58:39;12.90;99.90
17172;DHT22;8701;50.150;8.756;2023-04-22T01:02:42;12.90;99.90
17172;DHT22;8701;50.150;8.756;2023-04-22T01:06:44;12.90;99.90
17172;DHT22;8701;50.150;8.756;2023-04-22T01:10:49;12.90;99.90
17172;DHT22;8701;50.150;8.756;2023-04-22T01:14:52;12.80;99.90
17172;DHT22;8701;50.150;8.756;2023-04-22T01:18:54;12.90;99.90
17172;DHT22;8701;50.150;8.756;2023-04-22T01:22:57;12.90;99.90
17172;DHT22;8701;50.150;8.756;2023-04-22T01:27:05;12.80;99.90
17172;DHT22;8701;50.150;8.756;2023-04-22T01:31:07;12.80;99.90
17172;DHT22;8701;50.150;8.756;2023-04-22T01:35:10;12.80;99.90
17172;DHT22;8701;50.150;8.756;2023-04-22T01:39:12;12.80;99.90
17172;DHT22;8701;50.150;8.756;2023-04-22T01:43:16;12.80;99.90
17172;DHT22;8701;50.150;8.756;2023-04-22T01:47:18;12.80;99.90
17172;DHT22;8701;50.150;8.756;2023-04-22T01:51:20;12.70;99.90
17172;DHT22;8701;50.150;8.756;2023-04-22T01:55:23;12.70;99.90
17172;DHT22;8701;50.150;8.756;2023-04-22T01:59:27;12.70;99.90
17172;DHT22;8701;50.150;8.756;2023-04-22T02:03:29;12.60;99.90
17172;DHT22;8701;50.150;8.756;2023-04-22T02:07:32;12.60;99.90
17172;DHT22;8701;50.150;8.756;2023-04-22T02:11:34;12.60;99.90
17172;DHT22;8701;50.150;8.756;2023-04-22T02:15:38;12.60;99.90
17172;DHT22;8701;50.150;8.756;2023-04-22T02:19:41;12.60;99.90
17172;DHT22;8701;50.150;8.756;2023-04-22T02:23:43;12.60;99.90
17172;DHT22;8701;50.150;8.756;2023-04-22T02:27:45;12.60;99.90
17172;DHT22;8701;50.150;8.756;2023-04-22T02:31:48;12.60;99.90
17172;DHT22;8701;50.150;8.756;2023-04-22T02:35:51;12.60;99.90
17172;DHT22;8701;50.150;8.756;2023-04-22T02:39:53;12.60;99.90
17172;DHT22;8701;50.150;8.756;2023-04-22T02:43:55;12.50;99.90
17172;DHT22;8701;50.150;8.756;2023-04-22T02:48:00;12.50;99.90
17172;DHT22;8701;50.150;8.756;2023-04-22T02:52:03;12.50;99.90
17172;DHT22;8701;50.150;8.756;2023-04-22T02:56:06;12.50;99.90
17172;DHT22;8701;50.150;8.756;2023-04-22T03:00:09;12.40;99.90
17172;DHT22;8701;50.150;8.756;2023-04-22T03:04:13;12.40;99.90
17172;DHT22;8701;50.150;8.756;2023-04-22T03:08:16;12.40;99.90
17172;DHT22;8701;50.150;8.756;2023-04-22T03:12:18;12.40;99.90
17172;DHT22;8701;50.150;8.756;2023-04-22T03:16:21;12.40;99.90
17172;DHT22;8701;50.150;8.756;2023-04-22T03:20:26;12.30;99.90
17172;DHT22;8701;50.150;8.756;2023-04-22T03:24:29;12.30;99.90
17172;DHT22;8701;50.150;8.756;2023-04-22T03:28:31;12.30;99.90
17172;DHT22;8701;50.150;8.756;2023-04-22T03:32:33;12.30;99.90
17172;DHT22;8701;50.150;8.756;2023-04-22T03:36:51;12.30;99.90
17172;DHT22;8701;50.150;8.756;2023-04-22T03:40:53;12.30;99.90
17172;DHT22;8701;50.150;8.756;2023-04-22T03:45:07;12.30;99.90
17172;DHT22;8701;50.150;8.756;2023-04-22T03:49:14;12.30;99.90
17172;DHT22;8701;50.150;8.756;2023-04-22T03:53:19;12.30;99.90
17172;DHT22;8701;50.150;8.756;2023-04-22T03:57:21;12.20;99.90
17172;DHT22;8701;50.150;8.756;2023-04-22T04:01:24;12.20;99.90
17172;DHT22;8701;50.150;8.756;2023-04-22T04:05:31;12.20;99.90
17172;DHT22;8701;50.150;8.756;2023-04-22T04:09:35;12.20;99.90
17172;DHT22;8701;50.150;8.756;2023-04-22T04:13:37;12.20;99.90
17172;DHT22;8701;50.150;8.756;2023-04-22T04:18:06;12.10;99.90
17172;DHT22;8701;50.150;8.756;2023-04-22T04:22:09;12.10;99.90
17172;DHT22;8701;50.150;8.756;2023-04-22T04:26:20;12.00;99.90
17172;DHT22;8701;50.150;8.756;2023-04-22T04:30:28;12.00;99.90
17172;DHT22;8701;50.150;8.756;2023-04-22T04:34:30;12.00;99.90
17172;DHT22;8701;50.150;8.756;2023-04-22T04:38:34;12.00;99.90
17172;DHT22;8701;50.150;8.756;2023-04-22T04:42:38;12.00;99.90
17172;DHT22;8701;50.150;8.756;2023-04-22T04:46:46;12.00;99.90
17172;DHT22;8701;50.150;8.756;2023-04-22T04:50:48;12.00;99.90
17172;DHT22;8701;50.150;8.756;2023-04-22T04:54:53;12.00;99.90
17172;DHT22;8701;50.150;8.756;2023-04-22T04:58:57;11.90;99.90
17172;DHT22;8701;50.150;8.756;2023-04-22T05:03:01;11.90;99.90
17172;DHT22;8701;50.150;8.756;2023-04-22T05:07:04;11.90;99.90
17172;DHT22;8701;50.150;8.756;2023-04-22T05:11:09;12.00;99.90
17172;DHT22;8701;50.150;8.756;2023-04-22T05:15:13;12.00;99.90
17172;DHT22;8701;50.150;8.756;2023-04-22T05:19:16;12.00;99.90
17172;DHT22;8701;50.150;8.756;2023-04-22T05:23:20;12.00;99.90
17172;DHT22;8701;50.150;8.756;2023-04-22T05:27:26;12.10;99.90
17172;DHT22;8701;50.150;8.756;2023-04-22T05:31:30;12.10;99.90
17172;DHT22;8701;50.150;8.756;2023-04-22T05:35:34;12.10;99.90
17172;DHT22;8701;50.150;8.756;2023-04-22T05:39:36;12.10;99.90
17172;DHT22;8701;50.150;8.756;2023-04-22T05:43:43;12.20;99.90
17172;DHT22;8701;50.150;8.756;2023-04-22T05:47:51;12.20;99.90
17172;DHT22;8701;50.150;8.756;2023-04-22T05:51:54;12.20;99.90
17172;DHT22;8701;50.150;8.756;2023-04-22T05:56:01;12.30;99.90
17172;DHT22;8701;50.150;8.756;2023-04-22T06:00:04;12.40;99.90
17172;DHT22;8701;50.150;8.756;2023-04-22T06:04:15;12.40;99.90
17172;DHT22;8701;50.150;8.756;2023-04-22T06:08:18;12.40;99.90
17172;DHT22;8701;50.150;8.756;2023-04-22T06:12:24;12.50;99.90
17172;DHT22;8701;50.150;8.756;2023-04-22T06:16:27;12.60;99.90
17172;DHT22;8701;50.150;8.756;2023-04-22T06:20:30;12.80;99.90
17172;DHT22;8701;50.150;8.756;2023-04-22T06:24:33;13.00;99.90
17172;DHT22;8701;50.150;8.756;2023-04-22T06:28:35;13.10;99.90
17172;DHT22;8701;50.150;8.756;2023-04-22T06:32:43;13.20;99.90
17172;DHT22;8701;50.150;8.756;2023-04-22T06:36:47;13.20;99.90
17172;DHT22;8701;50.150;8.756;2023-04-22T06:40:49;13.30;99.90
17172;DHT22;8701;50.150;8.756;2023-04-22T06:44:57;13.40;99.90
17172;DHT22;8701;50.150;8.756;2023-04-22T06:49:20;13.50;99.90
17172;DHT22;8701;50.150;8.756;2023-04-22T06:54:02;13.70;99.90
17172;DHT22;8701;50.150;8.756;2023-04-22T06:58:05;13.90;99.90
17172;DHT22;8701;50.150;8.756;2023-04-22T07:02:07;14.10;99.90
17172;DHT22;8701;50.150;8.756;2023-04-22T07:06:12;14.30;99.90
17172;DHT22;8701;50.150;8.756;2023-04-22T07:10:16;14.40;99.90
17172;DHT22;8701;50.150;8.756;2023-04-22T07:14:41;14.50;99.90
17172;DHT22;8701;50.150;8.756;2023-04-22T07:18:44;14.50;99.90
17172;DHT22;8701;50.150;8.756;2023-04-22T07:22:46;14.60;99.90
17172;DHT22;8701;50.150;8.756;2023-04-22T07:26:49;14.70;99.90
17172;DHT22;8701;50.150;8.756;2023-04-22T07:30:53;14.80;99.90
17172;DHT22;8701;50.150;8.756;2023-04-22T07:34:55;14.90;99.90
17172;DHT22;8701;50.150;8.756;2023-04-22T07:38:57;14.90;99.90
17172;DHT22;8701;50.150;8.756;2023-04-22T07:43:01;15.00;99.90
17172;DHT22;8701;50.150;8.756;2023-04-22T07:47:05;15.10;99.90
17172;DHT22;8701;50.150;8.756;2023-04-22T07:51:08;15.30;99.90
17172;DHT22;8701;50.150;8.756;2023-04-22T07:55:10;15.70;99.90
17172;DHT22;8701;50.150;8.756;2023-04-22T07:59:14;16.40;99.90
17172;DHT22;8701;50.150;8.756;2023-04-22T08:03:16;18.00;99.90
17172;DHT22;8701;50.150;8.756;2023-04-22T08:07:18;20.60;99.90
17172;DHT22;8701;50.150;8.756;2023-04-22T08:11:20;22.80;99.90
17172;DHT22;8701;50.150;8.756;2023-04-22T08:15:24;24.50;99.90
17172;DHT22;8701;50.150;8.756;2023-04-22T08:19:26;25.50;99.90
17172;DHT22;8701;50.150;8.756;2023-04-22T08:23:28;25.70;99.90
17172;DHT22;8701;50.150;8.756;2023-04-22T08:27:30;26.00;99.90
17172;DHT22;8701;50.150;8.756;2023-04-22T08:31:34;25.30;99.90
17172;DHT22;8701;50.150;8.756;2023-04-22T08:35:36;25.10;99.90
17172;DHT22;8701;50.150;8.756;2023-04-22T08:39:39;24.80;99.90
17172;DHT22;8701;50.150;8.756;2023-04-22T08:43:41;24.80;99.90
17172;DHT22;8701;50.150;8.756;2023-04-22T08:47:46;24.00;99.90
17172;DHT22;8701;50.150;8.756;2023-04-22T08:51:49;23.20;99.90
17172;DHT22;8701;50.150;8.756;2023-04-22T08:55:55;22.90;99.90
17172;DHT22;8701;50.150;8.756;2023-04-22T08:59:57;23.20;99.90
17172;DHT22;8701;50.150;8.756;2023-04-22T09:04:02;23.80;99.90
17172;DHT22;8701;50.150;8.756;2023-04-22T09:08:04;24.30;99.90
17172;DHT22;8701;50.150;8.756;2023-04-22T09:12:07;25.50;99.90
17172;DHT22;8701;50.150;8.756;2023-04-22T09:16:10;26.00;99.90
17172;DHT22;8701;50.150;8.756;2023-04-22T09:20:13;26.70;99.90
17172;DHT22;8701;50.150;8.756;2023-04-22T09:24:17;27.20;99.90
17172;DHT22;8701;50.150;8.756;2023-04-22T09:28:20;27.40;99.90
17172;DHT22;8701;50.150;8.756;2023-04-22T09:32:23;26.70;98.70
17172;DHT22;8701;50.150;8.756;2023-04-22T09:36:28;26.20;99.10
17172;DHT22;8701;50.150;8.756;2023-04-22T09:40:31;26.10;99.40
17172;DHT22;8701;50.150;8.756;2023-04-22T09:44:34;26.00;98.50
17172;DHT22;8701;50.150;8.756;2023-04-22T09:48:41;26.00;98.10
17172;DHT22;8701;50.150;8.756;2023-04-22T09:52:44;25.70;98.50
17172;DHT22;8701;50.150;8.756;2023-04-22T09:56:54;25.40;98.80
17172;DHT22;8701;50.150;8.756;2023-04-22T10:00:57;25.00;99.70
17172;DHT22;8701;50.150;8.756;2023-04-22T10:05:00;24.80;99.90
17172;DHT22;8701;50.150;8.756;2023-04-22T10:09:04;25.10;99.90
17172;DHT22;8701;50.150;8.756;2023-04-22T10:13:07;25.30;99.90
17172;DHT22;8701;50.150;8.756;2023-04-22T10:17:11;25.70;99.90
17172;DHT22;8701;50.150;8.756;2023-04-22T10:21:14;26.40;99.90
17172;DHT22;8701;50.150;8.756;2023-04-22T10:25:22;26.90;98.20
17172;DHT22;8701;50.150;8.756;2023-04-22T10:29:26;27.50;97.60
17172;DHT22;8701;50.150;8.756;2023-04-22T10:33:37;28.10;98.00
17172;DHT22;8701;50.150;8.756;2023-04-22T10:37:40;28.50;96.00
17172;DHT22;8701;50.150;8.756;2023-04-22T10:41:50;28.90;93.50
17172;DHT22;8701;50.150;8.756;2023-04-22T10:45:53;28.70;93.80
17172;DHT22;8701;50.150;8.756;2023-04-22T10:50:09;28.40;93.70
17172;DHT22;8701;50.150;8.756;2023-04-22T10:58:57;29.30;91.80
17172;DHT22;8701;50.150;8.756;2023-04-22T11:03:14;29.50;93.70
17172;DHT22;8701;50.150;8.756;2023-04-22T11:11:31;29.60;91.90
17172;DHT22;8701;50.150;8.756;2023-04-22T11:15:37;30.10;92.00
17172;DHT22;8701;50.150;8.756;2023-04-22T11:19:39;31.00;89.80
17172;DHT22;8701;50.150;8.756;2023-04-22T11:23:48;31.70;82.10
17172;DHT22;8701;50.150;8.756;2023-04-22T11:27:52;32.30;80.30
17172;DHT22;8701;50.150;8.756;2023-04-22T11:31:57;32.20;74.00
17172;DHT22;8701;50.150;8.756;2023-04-22T11:36:00;31.70;72.80
17172;DHT22;8701;50.150;8.756;2023-04-22T11:40:03;31.70;72.30
17172;DHT22;8701;50.150;8.756;2023-04-22T11:44:05;31.70;73.10
17172;DHT22;8701;50.150;8.756;2023-04-22T11:48:09;31.70;67.40
17172;DHT22;8701;50.150;8.756;2023-04-22T11:52:12;31.40;67.00
17172;DHT22;8701;50.150;8.756;2023-04-22T11:56:14;31.60;68.60
17172;DHT22;8701;50.150;8.756;2023-04-22T12:00:16;31.70;66.10
17172;DHT22;8701;50.150;8.756;2023-04-22T12:04:21;31.40;68.90
17172;DHT22;8701;50.150;8.756;2023-04-22T12:08:25;31.20;64.80
17172;DHT22;8701;50.150;8.756;2023-04-22T12:12:28;31.20;63.90
17172;DHT22;8701;50.150;8.756;2023-04-22T12:16:38;30.80;66.40
17172;DHT22;8701;50.150;8.756;2023-04-22T12:20:42;30.90;64.60
17172;DHT22;8701;50.150;8.756;2023-04-22T12:24:44;30.20;63.00
17172;DHT22;8701;50.150;8.756;2023-04-22T12:28:48;29.90;64.60
17172;DHT22;8701;50.150;8.756;2023-04-22T12:32:51;29.60;65.40
17172;DHT22;8701;50.150;8.756;2023-04-22T12:36:55;29.70;65.20
17172;DHT22;8701;50.150;8.756;2023-04-22T12:40:57;29.60;65.00
17172;DHT22;8701;50.150;8.756;2023-04-22T12:44:59;29.60;67.50
17172;DHT22;8701;50.150;8.756;2023-04-22T12:49:01;29.90;65.70
17172;DHT22;8701;50.150;8.756;2023-04-22T12:53:05;29.50;66.50
17172;DHT22;8701;50.150;8.756;2023-04-22T12:57:07;29.30;67.10
17172;DHT22;8701;50.150;8.756;2023-04-22T13:01:09;29.30;67.60
17172;DHT22;8701;50.150;8.756;2023-04-22T13:05:12;28.70;69.20
17172;DHT22;8701;50.150;8.756;2023-04-22T13:09:15;28.50;67.80
17172;DHT22;8701;50.150;8.756;2023-04-22T13:13:18;27.90;68.60
17172;DHT22;8701;50.150;8.756;2023-04-22T13:17:20;27.10;67.50
17172;DHT22;8701;50.150;8.756;2023-04-22T13:21:22;26.80;69.40
17172;DHT22;8701;50.150;8.756;2023-04-22T13:25:26;26.70;68.40
17172;DHT22;8701;50.150;8.756;2023-04-22T13:29:28;26.20;70.50
17172;DHT22;8701;50.150;8.756;2023-04-22T13:33:30;25.90;70.90
17172;DHT22;8701;50.150;8.756;2023-04-22T13:37:32;25.90;71.10
17172;DHT22;8701;50.150;8.756;2023-04-22T13:41:37;25.80;71.40
17172;DHT22;8701;50.150;8.756;2023-04-22T13:45:39;25.50;72.60
17172;DHT22;8701;50.150;8.756;2023-04-22T13:49:42;25.10;74.10
17172;DHT22;8701;50.150;8.756;2023-04-22T13:53:44;24.90;75.30
17172;DHT22;8701;50.150;8.756;2023-04-22T13:57:49;24.80;76.20
17172;DHT22;8701;50.150;8.756;2023-04-22T14:01:51;24.50;76.10
17172;DHT22;8701;50.150;8.756;2023-04-22T14:05:53;24.30;76.30
17172;DHT22;8701;50.150;8.756;2023-04-22T14:09:56;24.00;76.70
17172;DHT22;8701;50.150;8.756;2023-04-22T14:13:59;23.90;78.30
17172;DHT22;8701;50.150;8.756;2023-04-22T14:18:01;23.50;78.30
17172;DHT22;8701;50.150;8.756;2023-04-22T14:22:03;23.40;78.90
17172;DHT22;8701;50.150;8.756;2023-04-22T14:26:08;23.00;79.30
17172;DHT22;8701;50.150;8.756;2023-04-22T14:30:13;22.70;79.70
17172;DHT22;8701;50.150;8.756;2023-04-22T14:34:16;22.70;79.70
17172;DHT22;8701;50.150;8.756;2023-04-22T14:38:19;22.70;80.00
17172;DHT22;8701;50.150;8.756;2023-04-22T14:42:22;22.70;81.20
17172;DHT22;8701;50.150;8.756;2023-04-22T14:46:25;22.50;80.30
17172;DHT22;8701;50.150;8.756;2023-04-22T14:50:28;22.30;81.80
17172;DHT22;8701;50.150;8.756;2023-04-22T14:54:30;21.80;80.90
17172;DHT22;8701;50.150;8.756;2023-04-22T14:58:33;21.40;83.70
17172;DHT22;8701;50.150;8.756;2023-04-22T15:02:36;21.20;86.00
17172;DHT22;8701;50.150;8.756;2023-04-22T15:06:38;21.30;87.10
17172;DHT22;8701;50.150;8.756;2023-04-22T15:10:41;21.30;88.20
17172;DHT22;8701;50.150;8.756;2023-04-22T15:14:43;21.40;87.70
17172;DHT22;8701;50.150;8.756;2023-04-22T15:18:47;21.40;87.50
17172;DHT22;8701;50.150;8.756;2023-04-22T15:22:49;21.30;87.00
17172;DHT22;8701;50.150;8.756;2023-04-22T15:26:52;21.20;86.50
17172;DHT22;8701;50.150;8.756;2023-04-22T15:30:54;21.20;86.00
17172;DHT22;8701;50.150;8.756;2023-04-22T15:34:58;21.10;85.80
17172;DHT22;8701;50.150;8.756;2023-04-22T15:39:00;21.00;86.10
17172;DHT22;8701;50.150;8.756;2023-04-22T15:43:04;21.10;86.90
17172;DHT22;8701;50.150;8.756;2023-04-22T15:47:06;21.10;86.80
17172;DHT22;8701;50.150;8.756;2023-04-22T15:51:10;21.10;87.60
17172;DHT22;8701;50.150;8.756;2023-04-22T15:55:13;21.00;87.40
17172;DHT22;8701;50.150;8.756;2023-04-22T15:59:15;20.90;87.80
17172;DHT22;8701;50.150;8.756;2023-04-22T16:03:17;20.90;90.00
17172;DHT22;8701;50.150;8.756;2023-04-22T16:07:21;20.90;90.00
17172;DHT22;8701;50.150;8.756;2023-04-22T16:11:23;20.70;90.10
17172;DHT22;8701;50.150;8.756;2023-04-22T16:15:25;20.60;90.40
17172;DHT22;8701;50.150;8.756;2023-04-22T16:19:28;20.60;90.80
17172;DHT22;8701;50.150;8.756;2023-04-22T16:23:31;20.60;91.10
17172;DHT22;8701;50.150;8.756;2023-04-22T16:27:34;20.60;91.50
17172;DHT22;8701;50.150;8.756;2023-04-22T16:31:36;20.60;91.40
17172;DHT22;8701;50.150;8.756;2023-04-22T16:35:39;20.50;92.10
17172;DHT22;8701;50.150;8.756;2023-04-22T16:39:43;20.40;92.00
17172;DHT22;8701;50.150;8.756;2023-04-22T16:43:45;20.40;92.30
17172;DHT22;8701;50.150;8.756;2023-04-22T16:47:47;20.50;92.40
17172;DHT22;8701;50.150;8.756;2023-04-22T16:51:49;20.40;92.00
17172;DHT22;8701;50.150;8.756;2023-04-22T16:55:53;20.40;92.70
17172;DHT22;8701;50.150;8.756;2023-04-22T16:59:55;20.40;92.10
17172;DHT22;8701;50.150;8.756;2023-04-22T17:03:57;20.20;92.00
17172;DHT22;8701;50.150;8.756;2023-04-22T17:08:00;20.20;92.50
17172;DHT22;8701;50.150;8.756;2023-04-22T17:12:03;20.20;92.50
17172;DHT22;8701;50.150;8.756;2023-04-22T17:16:06;20.00;92.20
17172;DHT22;8701;50.150;8.756;2023-04-22T17:20:10;19.90;92.50
17172;DHT22;8701;50.150;8.756;2023-04-22T17:24:12;19.90;92.70
17172;DHT22;8701;50.150;8.756;2023-04-22T17:28:16;19.80;93.00
17172;DHT22;8701;50.150;8.756;2023-04-22T17:32:18;19.80;93.30
17172;DHT22;8701;50.150;8.756;2023-04-22T17:36:20;19.70;93.40
17172;DHT22;8701;50.150;8.756;2023-04-22T17:40:23;19.70;93.40
17172;DHT22;8701;50.150;8.756;2023-04-22T17:44:26;19.50;93.20
17172;DHT22;8701;50.150;8.756;2023-04-22T17:48:28;19.50;93.60
17172;DHT22;8701;50.150;8.756;2023-04-22T17:52:30;19.40;93.60
17172;DHT22;8701;50.150;8.756;2023-04-22T17:56:33;19.40;94.10
17172;DHT22;8701;50.150;8.756;2023-04-22T18:00:36;19.30;94.20
17172;DHT22;8701;50.150;8.756;2023-04-22T18:04:39;19.20;94.10
17172;DHT22;8701;50.150;8.756;2023-04-22T18:08:41;19.00;94.30
17172;DHT22;8701;50.150;8.756;2023-04-22T18:12:43;19.00;94.90
17172;DHT22;8701;50.150;8.756;2023-04-22T18:16:47;19.00;95.10
17172;DHT22;8701;50.150;8.756;2023-04-22T18:20:49;19.00;95.40
17172;DHT22;8701;50.150;8.756;2023-04-22T18:24:52;18.90;95.70
17172;DHT22;8701;50.150;8.756;2023-04-22T18:28:54;18.80;95.90
17172;DHT22;8701;50.150;8.756;2023-04-22T18:32:58;18.80;96.00
17172;DHT22;8701;50.150;8.756;2023-04-22T18:37:00;18.70;96.20
17172;DHT22;8701;50.150;8.756;2023-04-22T18:41:02;18.60;96.40
17172;DHT22;8701;50.150;8.756;2023-04-22T18:45:06;18.40;96.60
17172;DHT22;8701;50.150;8.756;2023-04-22T18:49:10;18.50;97.20
17172;DHT22;8701;50.150;8.756;2023-04-22T18:53:12;18.50;97.50
17172;DHT22;8701;50.150;8.756;2023-04-22T18:57:14;18.30;97.80
17172;DHT22;8701;50.150;8.756;2023-04-22T19:01:17;18.20;98.20
17172;DHT22;8701;50.150;8.756;2023-04-22T19:05:21;18.10;98.50
17172;DHT22;8701;50.150;8.756;2023-04-22T19:09:23;18.00;99.00
17172;DHT22;8701;50.150;8.756;2023-04-22T19:13:25;18.00;99.70
17172;DHT22;8701;50.150;8.756;2023-04-22T19:17:28;17.90;99.90
17172;DHT22;8701;50.150;8.756;2023-04-22T19:21:32;17.70;99.90
17172;DHT22;8701;50.150;8.756;2023-04-22T19:25:34;17.60;99.90
17172;DHT22;8701;50.150;8.756;2023-04-22T19:29:38;17.50;99.90
17172;DHT22;8701;50.150;8.756;2023-04-22T19:33:40;17.30;99.90
17172;DHT22;8701;50.150;8.756;2023-04-22T19:37:43;17.30;99.90
17172;DHT22;8701;50.150;8.756;2023-04-22T19:41:46;17.20;99.90
17172;DHT22;8701;50.150;8.756;2023-04-22T19:45:49;17.20;99.90
17172;DHT22;8701;50.150;8.756;2023-04-22T19:49:51;17.10;99.90
17172;DHT22;8701;50.150;8.756;2023-04-22T19:53:55;17.10;99.90
17172;DHT22;8701;50.150;8.756;2023-04-22T19:57:58;17.10;99.90
17172;DHT22;8701;50.150;8.756;2023-04-22T20:02:01;17.10;99.90
17172;DHT22;8701;50.150;8.756;2023-04-22T20:06:04;17.10;99.90
17172;DHT22;8701;50.150;8.756;2023-04-22T20:10:08;17.00;99.90
17172;DHT22;8701;50.150;8.756;2023-04-22T20:14:11;16.90;99.90
17172;DHT22;8701;50.150;8.756;2023-04-22T20:18:14;16.90;99.90
17172;DHT22;8701;50.150;8.756;2023-04-22T20:22:17;16.80;99.90
17172;DHT22;8701;50.150;8.756;2023-04-22T20:26:21;16.80;99.90
17172;DHT22;8701;50.150;8.756;2023-04-22T20:30:24;16.70;99.90
17172;DHT22;8701;50.150;8.756;2023-04-22T20:34:27;16.70;99.90
17172;DHT22;8701;50.150;8.756;2023-04-22T20:38:33;16.70;99.90
17172;DHT22;8701;50.150;8.756;2023-04-22T20:42:38;16.60;99.90
17172;DHT22;8701;50.150;8.756;2023-04-22T20:46:40;16.50;99.90
17172;DHT22;8701;50.150;8.756;2023-04-22T20:50:42;16.40;99.90
17172;DHT22;8701;50.150;8.756;2023-04-22T20:54:44;16.40;99.90
17172;DHT22;8701;50.150;8.756;2023-04-22T20:58:52;16.30;99.90
17172;DHT22;8701;50.150;8.756;2023-04-22T21:02:54;16.30;99.90
17172;DHT22;8701;50.150;8.756;2023-04-22T21:06:58;16.30;99.90
17172;DHT22;8701;50.150;8.756;2023-04-22T21:11:04;16.20;99.90
17172;DHT22;8701;50.150;8.756;2023-04-22T21:15:09;16.20;99.90
17172;DHT22;8701;50.150;8.756;2023-04-22T21:19:12;16.10;99.90
17172;DHT22;8701;50.150;8.756;2023-04-22T21:23:14;16.00;99.90
17172;DHT22;8701;50.150;8.756;2023-04-22T21:27:17;16.00;99.90
17172;DHT22;8701;50.150;8.756;2023-04-22T21:31:21;16.00;99.90
17172;DHT22;8701;50.150;8.756;2023-04-22T21:35:24;16.00;99.90
17172;DHT22;8701;50.150;8.756;2023-04-22T21:39:26;16.00;99.90
17172;DHT22;8701;50.150;8.756;2023-04-22T21:43:28;15.90;99.90
17172;DHT22;8701;50.150;8.756;2023-04-22T21:47:32;15.80;99.90
17172;DHT22;8701;50.150;8.756;2023-04-22T21:51:34;15.80;99.90
17172;DHT22;8701;50.150;8.756;2023-04-22T21:55:36;15.70;99.90
17172;DHT22;8701;50.150;8.756;2023-04-22T21:59:39;15.70;99.90
17172;DHT22;8701;50.150;8.756;2023-04-22T22:03:42;15.50;99.90
17172;DHT22;8701;50.150;8.756;2023-04-22T22:07:45;15.50;99.90
17172;DHT22;8701;50.150;8.756;2023-04-22T22:11:48;15.50;99.90
17172;DHT22;8701;50.150;8.756;2023-04-22T22:15:50;15.50;99.90
17172;DHT22;8701;50.150;8.756;2023-04-22T22:19:56;15.50;99.90
17172;DHT22;8701;50.150;8.756;2023-04-22T22:23:58;15.40;99.90
17172;DHT22;8701;50.150;8.756;2023-04-22T22:28:00;15.40;99.90
17172;DHT22;8701;50.150;8.756;2023-04-22T22:32:02;15.20;99.90
17172;DHT22;8701;50.150;8.756;2023-04-22T22:36:06;15.10;99.90
17172;DHT22;8701;50.150;8.756;2023-04-22T22:40:10;15.10;99.90
17172;DHT22;8701;50.150;8.756;2023-04-22T22:44:12;15.00;99.90
17172;DHT22;8701;50.150;8.756;2023-04-22T22:48:14;15.00;99.90
17172;DHT22;8701;50.150;8.756;2023-04-22T22:52:18;15.00;99.90
17172;DHT22;8701;50.150;8.756;2023-04-22T22:56:20;15.00;99.90
17172;DHT22;8701;50.150;8.756;2023-04-22T23:00:22;14.90;99.90
17172;DHT22;8701;50.150;8.756;2023-04-22T23:04:24;14.80;99.90
17172;DHT22;8701;50.150;8.756;2023-04-22T23:08:28;14.80;99.90
17172;DHT22;8701;50.150;8.756;2023-04-22T23:12:30;14.80;99.90
17172;DHT22;8701;50.150;8.756;2023-04-22T23:16:34;14.70;99.90
17172;DHT22;8701;50.150;8.756;2023-04-22T23:20:38;14.70;99.90
17172;DHT22;8701;50.150;8.756;2023-04-22T23:24:42;14.60;99.90
17172;DHT22;8701;50.150;8.756;2023-04-22T23:28:44;14.50;99.90
17172;DHT22;8701;50.150;8.756;2023-04-22T23:32:47;14.50;99.90
17172;DHT22;8701;50.150;8.756;2023-04-22T23:36:49;14.50;99.90
17172;DHT22;8701;50.150;8.756;2023-04-22T23:40:54;14.50;99.90
17172;DHT22;8701;50.150;8.756;2023-04-22T23:44:56;14.40;99.90
17172;DHT22;8701;50.150;8.756;2023-04-22T23:48:58;14.50;99.90
17172;DHT22;8701;50.150;8.756;2023-04-22T23:53:01;14.50;99.90
17172;DHT22;8701;50.150;8.756;2023-04-22T23:57:05;14.40;99.90
